Terminal Aerodrome Forecast
Issued by NWS Cleveland, OH

Home | Current Version | Previous Version | Text Only | Print | Product List | Glossary On
Versions: 1 2 3 4 5 6 7 8 9 10 11 12 13 14 15 16 17 18 19 20 21 22 23
000
FTUS41 KCLE 240500
TAFERI
TAF
KERI 240525Z 2406/2506 15025G38KT 6SM -SHRA OVC045
     FM240900 18025G35KT P6SM SCT025 OVC040
     FM242000 21030G40KT P6SM OVC035
      TEMPO 2420/2422 3SM -SHRA
     FM250100 22025G35KT P6SM OVC035=

USA.gov is the U.S. government's official web portal to all federal, state and local government web resources and services.